• Join FlightAware (Why Join?)
  • Login
  • US Flag 
10:14PM EDT


 

Airport Tracker/Info


-or-


 

Live Flight TrackerFlight Track Log ✈ SWA534 ✈ 21-Aug-2013 ✈ KSLC - KLAS

Flight Track Log - Related Links

Times and Time Zones

All times are in EDT time to prevent confusion due to time zone crossing. See the SWA534 flight status page for this flight to view local times or setup timezone preferences in your user account.

Time Position Orientation Groundspeed Altitude Reporting Facility
EDT Latitude Longitude Course Direction KTS MPH feet Rate Location/Type
11:11PM 40.8389 -112.0358 295° West 215 247 6,800  Level Salt Lake Center
11:12PM 40.8231 -112.1242 257° West 242 278 10,000 1,980 Climbing Salt Lake Center
11:13PM 40.8053 -112.2211 256° West 272 313 10,900 1,320 Climbing Salt Lake Center
11:14PM 40.7306 -112.2797 211° Southwest 329 379 12,700 2,280 Climbing Salt Lake Center
11:15PM 40.6358 -112.3000 189° South 345 397 15,600 2,760 Climbing Salt Lake Center
11:16PM 40.5222 -112.3389 195° South 362 417 18,400 2,400 Climbing Salt Lake Center
11:17PM 40.4236 -112.3861 200° South 378 435 20,500 2,100 Climbing Salt Lake Center
11:18PM 40.3239 -112.4336 200° South 382 440 22,700 1,800 Climbing Salt Lake Center
11:19PM 40.2208 -112.4817 200° South 397 457 24,200 1,620 Climbing Salt Lake Center
11:20PM 40.1131 -112.5311 199° South 409 471 26,100 1,740 Climbing Salt Lake Center
11:21PM 40.0053 -112.5822 200° South 412 474 27,800 1,740 Climbing Salt Lake Center
11:22PM 39.8964 -112.6319 199° South 416 479 29,700 1,980 Climbing Salt Lake Center
11:23PM 39.7906 -112.6817 200° South 406 467 31,900 1,080 Climbing Salt Lake Center
11:24PM 39.6858 -112.7297 199° South 405 466 32,000  Climbing Salt Lake Center
11:25PM 39.5558 -112.7869 199° South 411 473 32,000  Level Salt Lake Center
11:26PM 39.4461 -112.8347 199° South 416 479 32,000  Level Salt Lake Center
11:27PM 39.3347 -112.8847 199° South 424 488 32,000  Level Salt Lake Center
11:28PM 39.2244 -112.9350 199° South 424 488 32,000 240 Level Salt Lake Center
11:29PM 39.1139 -112.9856 200° South 424 488 32,500 960 Climbing Salt Lake Center
11:30PM 39.0067 -113.0333 199° South 415 478 34,000 720 Climbing Salt Lake Center
11:31PM 38.8997 -113.0817 199° South 410 472 34,000  Level Salt Lake Center
11:32PM 38.7931 -113.1289 199° South 409 471 34,000 480 Level Salt Lake Center
11:33PM 38.6864 -113.1767 199° South 409 471 35,000 480 Climbing Salt Lake Center
11:34PM 38.5592 -113.2333 199° South 407 468 35,000  Level Salt Lake Center
11:36PM 38.4528 -113.2817 200° South 408 470 35,000  Level Salt Lake Center
11:37PM 38.3464 -113.3272 199° South 407 468 35,000  Level Salt Lake Center
11:38PM 38.2411 -113.3736 199° South 405 466 35,000 -240 Level Salt Lake Center
11:39PM 38.1342 -113.4206 199° South 408 470 34,600 -540 Descending Salt Lake Center
11:40PM 38.0258 -113.4681 199° South 412 474 34,000 -300 Descending Salt Lake Center
11:41PM 37.9186 -113.5150 199° South 411 473 34,000 -300 Level Salt Lake Center
11:42PM 37.8103 -113.5603 198° South 411 473 33,500 -660 Descending Salt Lake Center
11:43PM 37.7042 -113.6064 199° South 407 468 32,700 -780 Descending Salt Lake Center
11:44PM 37.5761 -113.6611 199° South 407 468 32,000 -360 Descending Salt Lake Center
11:45PM 37.4711 -113.7072 199° South 402 463 32,000  Level Salt Lake Center
11:46PM 37.3633 -113.7522 198° South 407 468 32,000  Level Salt Lake Center
11:47PM 37.2553 -113.7986 199° South 410 472 32,000  Level Salt Lake Center
11:48PM 37.1453 -113.8433 198° South 415 478 32,000 -600 Level Salt Lake Center
11:49PM 37.0342 -113.8889 198° South 419 482 30,900 -2,100 Descending Salt Lake Center
11:50PM 36.9261 -113.9350 199° South 415 478 27,800 -2,760 Descending Salt Lake Center
11:51PM 36.8203 -113.9786 198° South 409 471 25,300 -2,460 Descending Salt Lake Center
11:52PM 36.6817 -114.0383 199° South 386 444 21,900 -2,460 Descending Los Angeles Center
11:53PM 36.5853 -114.0789 199° South 372 428 19,500 -2,340 Descending Los Angeles Center
11:54PM 36.5292 -114.1814 236° Southwest 361 415 17,200 -2,340 Descending Los Angeles Center
11:55PM 36.4742 -114.3075 242° Southwest 346 398 14,700 -2,280 Descending Los Angeles Center
11:56PM 36.4275 -114.4081 240° Southwest 340 391 12,600 -1,800 Descending Los Angeles Center
11:57PM 36.4067 -114.4597 243° Southwest 333 383 12,000 -600 Descending Los Angeles Center
11:57PM 36.3728 -114.4892 215° Southwest 323 372 12,000 -1,200 Level Los Angeles Center
11:58PM 36.3147 -114.5594 224° Southwest 297 342 10,200 -1,500 Descending Los Angeles Center
11:59PM 36.2642 -114.6400 232° Southwest 296 341 8,900 -1,440 Descending Los Angeles Center
12:00AM 36.2183 -114.7153 233° Southwest 280 322 7,300 -1,080 Descending Los Angeles Center
12:01AM 36.1722 -114.7853 231° Southwest 265 305 6,700 -720 Descending Los Angeles Center
12:02AM 36.1350 -114.8478 234° Southwest 235 270 5,900 -900 Descending Los Angeles Center
12:03AM 36.1000 -114.9244 241° Southwest 216 249 4,900 -960 Descending Los Angeles Center
12:05AM 36.0742 -114.9856 242° Southwest 208 239 4,000 -840 Descending Los Angeles Center
12:06AM 36.0736 -115.0461 269° West 185 213 3,200 -780 Descending Los Angeles Center
12:07AM 36.0733 -115.0933 270° West 159 183 2,500 -600 Descending Los Angeles Center
12:08AM 36.0736 -115.1439 270° West 148 170 2,000 -540 Descending Los Angeles Center